Time;durP1;ratioP1;P1;durP2;ratioP2;P2;SDS_P1;SDS_P2;PMS_P1;PMS_P2;Temp;Humidity;BMP_temperature;BMP_pressure;BME280_temperature;BME280_humidity;BME280_pressure;Samples;Min_cycle;Max_cycle;Signal;HPM_P1;HPM_P2
2022/01/23 00:02:27;;;;;;;;;;;4.40;99.90;;;;;;4977571;28;20016;-77
2022/01/23 00:04:54;;;;;;;;;;;4.40;99.90;;;;;;4994763;28;20293;-77
2022/01/23 00:07:21;;;;;;;;;;;4.30;99.90;;;;;;4980321;28;19980;-77
2022/01/23 00:09:47;;;;;;;;;;;4.30;99.90;;;;;;4976340;28;19926;-78
2022/01/23 00:12:21;;;;;;;;;;;4.30;99.90;;;;;;4985408;28;19922;-77
2022/01/23 00:17:35;;;;;;;;;;;4.20;99.90;;;;;;4982395;28;19976;-77
2022/01/23 00:20:13;;;;;;;;;;;4.20;99.90;;;;;;4993190;28;19934;-77
2022/01/23 00:22:44;;;;;;;;;;;4.20;99.90;;;;;;4990492;28;19922;-78
2022/01/23 00:30:44;;;;;;;;;;;4.20;99.90;;;;;;4988427;28;20401;-78
2022/01/23 00:33:11;;;;;;;;;;;4.20;99.90;;;;;;4990715;28;19931;-78
2022/01/23 00:35:39;;;;;;;;;;;4.20;99.90;;;;;;4972133;28;19926;-76
2022/01/23 00:38:07;;;;;;;;;;;4.20;99.90;;;;;;4986193;28;19922;-76
2022/01/23 00:40:35;;;;;;;;;;;4.20;99.90;;;;;;4985604;28;19922;-76
2022/01/23 00:43:06;;;;;;;;;;;4.20;99.90;;;;;;4975120;28;19928;-76
2022/01/23 00:45:34;;;;;;;;;;;4.20;99.90;;;;;;4984554;28;19925;-76
2022/01/23 00:48:05;;;;;;;;;;;4.20;99.90;;;;;;4975087;28;19930;-77
2022/01/23 00:50:33;;;;;;;;;;;4.20;99.90;;;;;;4983224;28;19928;-77
2022/01/23 00:53:01;;;;;;;;;;;4.20;99.90;;;;;;4978967;28;19922;-77
2022/01/23 00:55:28;;;;;;;;;;;4.20;99.90;;;;;;4974630;28;19961;-77
2022/01/23 00:57:54;;;;;;;;;;;4.20;99.90;;;;;;4966455;28;19922;-76
2022/01/23 01:00:21;;;;;;;;;;;4.30;99.90;;;;;;4977113;28;19965;-76
2022/01/23 01:02:48;;;;;;;;;;;4.30;99.90;;;;;;4967135;28;19965;-76
2022/01/23 01:05:15;;;;;;;;;;;4.30;99.90;;;;;;4978900;28;20248;-76
2022/01/23 01:07:42;;;;;;;;;;;4.30;99.90;;;;;;4983276;28;20004;-76
2022/01/23 01:10:14;;;;;;;;;;;4.30;99.90;;;;;;4983940;28;19936;-76
2022/01/23 01:12:44;;;;;;;;;;;4.40;99.90;;;;;;4976416;28;19922;-77
2022/01/23 01:31:57;;;;;;;;;;;4.50;99.90;;;;;;4976497;28;19929;-77
2022/01/23 01:35:06;;;;;;;;;;;4.50;99.90;;;;;;4980731;28;19926;-76
2022/01/23 01:37:17;;;;;;;;;;;4.50;99.90;;;;;;4977763;28;20280;-76
2022/01/23 01:39:44;;;;;;;;;;;4.40;99.90;;;;;;4985990;28;19929;-76
2022/01/23 01:42:11;;;;;;;;;;;4.40;99.90;;;;;;4994792;28;20263;-76
2022/01/23 01:44:37;;;;;;;;;;;4.30;99.90;;;;;;4982390;28;19953;-76
2022/01/23 01:47:05;;;;;;;;;;;4.40;99.90;;;;;;4993119;28;19968;-76
2022/01/23 01:49:33;;;;;;;;;;;4.40;99.90;;;;;;4988574;28;19926;-76
2022/01/23 01:52:00;;;;;;;;;;;4.40;99.90;;;;;;4988048;28;20372;-76
2022/01/23 01:54:30;;;;;;;;;;;4.40;99.90;;;;;;4978021;28;19930;-76
2022/01/23 01:57:08;;;;;;;;;;;4.40;99.90;;;;;;4976384;28;20213;-76
2022/01/23 02:10:22;;;;;;;;;;;4.40;99.90;;;;;;4977122;28;19928;-76
2022/01/23 02:56:39;;;;;;;;;;;4.40;99.90;;;;;;4980932;28;19921;-76
2022/01/23 02:59:20;;;;;;;;;;;4.40;99.90;;;;;;4982904;28;20378;-77
2022/01/23 03:02:01;;;;;;;;;;;4.40;99.90;;;;;;4984242;28;20390;-76
2022/01/23 03:04:28;;;;;;;;;;;4.40;99.90;;;;;;4974143;28;19983;-76
2022/01/23 03:14:49;;;;;;;;;;;4.50;99.90;;;;;;4985445;28;19975;-76
2022/01/23 03:24:09;;;;;;;;;;;4.50;99.90;;;;;;4983664;28;20142;-76
2022/01/23 03:28:27;;;;;;;;;;;4.60;99.90;;;;;;4984488;28;19929;-76
2022/01/23 03:33:31;;;;;;;;;;;4.60;99.90;;;;;;4969514;28;19922;-76
2022/01/23 03:35:57;;;;;;;;;;;4.60;99.90;;;;;;4971399;28;19925;-76
2022/01/23 03:38:24;;;;;;;;;;;4.60;99.90;;;;;;4983345;28;19953;-76
2022/01/23 03:40:51;;;;;;;;;;;4.60;99.90;;;;;;4979738;28;20307;-76
2022/01/23 03:43:26;;;;;;;;;;;4.50;99.90;;;;;;4977749;28;19922;-76
2022/01/23 03:50:52;;;;;;;;;;;4.50;99.90;;;;;;4978760;28;19922;-76
2022/01/23 03:53:18;;;;;;;;;;;4.50;99.90;;;;;;4971269;28;19976;-78
2022/01/23 03:55:45;;;;;;;;;;;4.50;99.90;;;;;;4981590;28;19945;-76
2022/01/23 03:58:12;;;;;;;;;;;4.50;99.90;;;;;;4973480;28;20298;-76
2022/01/23 04:00:38;;;;;;;;;;;4.60;99.90;;;;;;4978298;28;20288;-77
2022/01/23 04:03:05;;;;;;;;;;;4.50;99.90;;;;;;4985115;28;19922;-76
2022/01/23 04:05:33;;;;;;;;;;;4.60;99.90;;;;;;4988144;28;19931;-76
2022/01/23 04:07:59;;;;;;;;;;;4.60;99.90;;;;;;4974752;28;20009;-76
2022/01/23 04:10:27;;;;;;;;;;;4.50;99.90;;;;;;4979434;28;19930;-76
2022/01/23 04:12:59;;;;;;;;;;;4.50;99.90;;;;;;4969796;28;19922;-77
2022/01/23 04:21:02;;;;;;;;;;;4.40;99.90;;;;;;4984534;28;19921;-77
2022/01/23 04:32:04;;;;;;;;;;;4.40;99.90;;;;;;4974935;28;19922;-76
2022/01/23 04:34:39;;;;;;;;;;;4.40;99.90;;;;;;4974732;28;19929;-77
2022/01/23 05:06:58;;;;;;;;;;;4.40;99.90;;;;;;4976295;28;19928;-77
2022/01/23 05:09:25;;;;;;;;;;;4.40;99.90;;;;;;4979177;28;20291;-77
2022/01/23 05:11:54;;;;;;;;;;;4.40;99.90;;;;;;4984004;28;19930;-77
2022/01/23 05:14:28;;;;;;;;;;;4.30;99.90;;;;;;4985388;28;19929;-77
2022/01/23 05:16:55;;;;;;;;;;;4.30;99.90;;;;;;4974308;28;19922;-77
2022/01/23 05:19:22;;;;;;;;;;;4.30;99.90;;;;;;4971003;28;19922;-77
2022/01/23 05:24:20;;;;;;;;;;;4.30;99.90;;;;;;4980688;28;19921;-77
2022/01/23 05:26:47;;;;;;;;;;;4.30;99.90;;;;;;4983550;28;20507;-77
2022/01/23 05:29:14;;;;;;;;;;;4.40;99.90;;;;;;4984346;28;20000;-77
2022/01/23 05:31:41;;;;;;;;;;;4.40;99.90;;;;;;4983444;28;19948;-77
2022/01/23 05:34:07;;;;;;;;;;;4.40;99.90;;;;;;4978155;28;19930;-77
2022/01/23 05:36:34;;;;;;;;;;;4.40;99.90;;;;;;4975735;28;20129;-77
2022/01/23 05:39:01;;;;;;;;;;;4.40;99.90;;;;;;4981018;28;19928;-77
2022/01/23 05:41:27;;;;;;;;;;;4.40;99.90;;;;;;4978736;28;19922;-77
2022/01/23 05:43:54;;;;;;;;;;;4.40;99.90;;;;;;4977321;28;19923;-78
2022/01/23 05:46:21;;;;;;;;;;;4.30;99.90;;;;;;4985846;28;19922;-77
2022/01/23 05:48:48;;;;;;;;;;;4.30;99.90;;;;;;4977441;28;19921;-77
2022/01/23 05:51:15;;;;;;;;;;;4.40;99.90;;;;;;4982341;28;19972;-77
2022/01/23 05:53:42;;;;;;;;;;;4.30;99.90;;;;;;4976398;28;19928;-77
2022/01/23 05:56:09;;;;;;;;;;;4.30;99.90;;;;;;4982587;28;19921;-77
2022/01/23 05:58:35;;;;;;;;;;;4.30;99.90;;;;;;4972200;28;19921;-77
2022/01/23 06:01:02;;;;;;;;;;;4.30;99.90;;;;;;4983185;28;19922;-78
2022/01/23 06:03:29;;;;;;;;;;;4.30;99.90;;;;;;4980727;28;19932;-77
2022/01/23 06:05:56;;;;;;;;;;;4.30;99.90;;;;;;4976788;28;19922;-77
2022/01/23 06:08:24;;;;;;;;;;;4.30;99.90;;;;;;4980026;28;19921;-77
2022/01/23 06:10:56;;;;;;;;;;;4.30;99.90;;;;;;4986693;28;19921;-78
2022/01/23 06:13:29;;;;;;;;;;;4.30;99.90;;;;;;4984209;28;19922;-77
2022/01/23 06:15:56;;;;;;;;;;;4.30;99.90;;;;;;4988793;28;19928;-77
2022/01/23 06:18:22;;;;;;;;;;;4.20;99.90;;;;;;4980630;28;19922;-77
2022/01/23 06:20:49;;;;;;;;;;;4.20;99.90;;;;;;4977660;28;20350;-77
2022/01/23 06:23:16;;;;;;;;;;;4.20;99.90;;;;;;4982423;28;20323;-77
2022/01/23 06:25:44;;;;;;;;;;;4.20;99.90;;;;;;4980611;28;19925;-77
2022/01/23 06:28:12;;;;;;;;;;;4.20;99.90;;;;;;4979889;28;19926;-77
2022/01/23 06:30:39;;;;;;;;;;;4.10;99.90;;;;;;4981878;28;19925;-77
2022/01/23 06:33:06;;;;;;;;;;;4.20;99.90;;;;;;4975172;28;19925;-77
2022/01/23 06:35:33;;;;;;;;;;;4.10;99.90;;;;;;4978532;28;19937;-77
2022/01/23 06:37:59;;;;;;;;;;;4.10;99.90;;;;;;4980571;28;20655;-77
2022/01/23 06:40:26;;;;;;;;;;;4.10;99.90;;;;;;4982010;28;19922;-77
2022/01/23 06:42:53;;;;;;;;;;;4.10;99.90;;;;;;4976529;28;20160;-77
2022/01/23 06:45:20;;;;;;;;;;;4.10;99.90;;;;;;4981854;28;19922;-77
2022/01/23 06:47:46;;;;;;;;;;;4.10;99.90;;;;;;4977059;28;19930;-77
2022/01/23 06:53:35;;;;;;;;;;;4.00;99.90;;;;;;4977544;28;19968;-77
2022/01/23 06:56:02;;;;;;;;;;;4.00;99.90;;;;;;4983698;28;19925;-77
2022/01/23 06:58:29;;;;;;;;;;;4.00;99.90;;;;;;4980257;28;19923;-77
2022/01/23 07:00:55;;;;;;;;;;;4.00;99.90;;;;;;5008024;28;19928;-77
2022/01/23 07:03:22;;;;;;;;;;;4.00;99.90;;;;;;4977892;28;25077;-78
2022/01/23 07:05:51;;;;;;;;;;;4.00;99.90;;;;;;4981350;28;19926;-77
2022/01/23 07:08:18;;;;;;;;;;;4.00;99.90;;;;;;4983179;28;19926;-77
2022/01/23 07:10:45;;;;;;;;;;;3.90;99.90;;;;;;4982739;28;20439;-77
2022/01/23 07:13:14;;;;;;;;;;;3.90;99.90;;;;;;4982697;28;20373;-77
2022/01/23 07:15:44;;;;;;;;;;;3.90;99.90;;;;;;4982689;28;19926;-77
2022/01/23 07:18:10;;;;;;;;;;;3.90;99.90;;;;;;4980919;28;20395;-77
2022/01/23 07:20:37;;;;;;;;;;;3.90;99.90;;;;;;4980623;28;19930;-77
2022/01/23 07:23:03;;;;;;;;;;;3.90;99.90;;;;;;4985282;28;19925;-77
2022/01/23 07:25:30;;;;;;;;;;;3.90;99.90;;;;;;4985285;28;19932;-77
2022/01/23 07:27:59;;;;;;;;;;;3.90;99.90;;;;;;4973632;28;19937;-77
2022/01/23 07:30:43;;;;;;;;;;;3.90;99.90;;;;;;4988216;28;19932;-76
2022/01/23 07:33:10;;;;;;;;;;;3.90;99.90;;;;;;4978167;28;20328;-77
2022/01/23 07:35:36;;;;;;;;;;;3.80;99.90;;;;;;4976403;28;19926;-77
2022/01/23 07:38:03;;;;;;;;;;;3.90;99.90;;;;;;4977962;28;19922;-77
2022/01/23 07:40:32;;;;;;;;;;;3.90;99.90;;;;;;4980271;28;19936;-77
2022/01/23 07:42:59;;;;;;;;;;;3.90;99.90;;;;;;4989280;28;20447;-77
2022/01/23 07:45:26;;;;;;;;;;;3.80;99.90;;;;;;4980853;28;19930;-76
2022/01/23 07:47:52;;;;;;;;;;;3.90;99.90;;;;;;4977534;28;19933;-77
2022/01/23 07:50:19;;;;;;;;;;;3.90;99.90;;;;;;4975758;28;19928;-76
2022/01/23 07:52:45;;;;;;;;;;;3.90;99.90;;;;;;4978947;28;19930;-77
2022/01/23 07:55:13;;;;;;;;;;;3.90;99.90;;;;;;4973812;28;19933;-77
2022/01/23 07:57:42;;;;;;;;;;;3.90;99.90;;;;;;4998539;28;20450;-77
2022/01/23 08:00:10;;;;;;;;;;;3.90;99.90;;;;;;4977491;28;19922;-77
2022/01/23 08:02:37;;;;;;;;;;;3.90;99.90;;;;;;4981752;28;19922;-76
2022/01/23 08:05:04;;;;;;;;;;;3.90;99.90;;;;;;4986950;28;19929;-77
2022/01/23 08:07:31;;;;;;;;;;;3.90;99.90;;;;;;4980087;28;19922;-77
2022/01/23 08:09:58;;;;;;;;;;;3.90;99.90;;;;;;4973635;28;20031;-77
2022/01/23 08:12:26;;;;;;;;;;;3.90;99.90;;;;;;4983014;28;19968;-76
2022/01/23 08:14:53;;;;;;;;;;;4.00;99.90;;;;;;4977256;28;19945;-76
2022/01/23 08:17:24;;;;;;;;;;;4.00;99.90;;;;;;4976583;28;19932;-77
2022/01/23 08:19:51;;;;;;;;;;;4.00;99.90;;;;;;4977929;28;19930;-77
2022/01/23 08:22:21;;;;;;;;;;;4.00;99.90;;;;;;4981540;28;19922;-76
2022/01/23 08:24:48;;;;;;;;;;;4.20;99.90;;;;;;4976218;28;20104;-77
2022/01/23 08:27:14;;;;;;;;;;;4.20;99.90;;;;;;4975478;28;19922;-76
2022/01/23 08:29:44;;;;;;;;;;;4.20;99.90;;;;;;4976350;28;19930;-76
2022/01/23 08:32:11;;;;;;;;;;;4.20;99.90;;;;;;4974358;28;19922;-76
2022/01/23 08:34:38;;;;;;;;;;;4.20;99.90;;;;;;4973249;28;19925;-76
2022/01/23 08:37:09;;;;;;;;;;;4.30;99.90;;;;;;4979167;28;20127;-76
2022/01/23 08:39:37;;;;;;;;;;;4.30;99.90;;;;;;4981680;28;19937;-76
2022/01/23 08:42:04;;;;;;;;;;;4.30;99.90;;;;;;4974111;28;19934;-76
2022/01/23 08:44:31;;;;;;;;;;;4.30;99.90;;;;;;4983638;28;19926;-76
2022/01/23 08:46:58;;;;;;;;;;;4.30;99.90;;;;;;4992123;28;19937;-76
2022/01/23 08:49:25;;;;;;;;;;;4.30;99.90;;;;;;4977737;28;19926;-76
2022/01/23 08:51:53;;;;;;;;;;;4.30;99.90;;;;;;4975640;28;20285;-76
2022/01/23 08:54:22;;;;;;;;;;;4.30;99.90;;;;;;4973738;28;19934;-76
2022/01/23 08:56:49;;;;;;;;;;;4.40;99.90;;;;;;4977954;28;20313;-76
2022/01/23 08:59:16;;;;;;;;;;;4.50;99.90;;;;;;4977005;28;19932;-77
2022/01/23 09:01:42;;;;;;;;;;;4.60;99.90;;;;;;4980681;28;19930;-76
2022/01/23 09:04:12;;;;;;;;;;;4.70;99.90;;;;;;4979004;28;20009;-77
2022/01/23 09:06:39;;;;;;;;;;;4.70;99.90;;;;;;4975549;28;19934;-75
2022/01/23 09:09:07;;;;;;;;;;;4.70;99.90;;;;;;4978908;28;19933;-75
2022/01/23 09:14:10;;;;;;;;;;;4.80;99.90;;;;;;4973346;28;20017;-76
2022/01/23 09:16:38;;;;;;;;;;;4.90;99.90;;;;;;4979256;28;19933;-76
2022/01/23 09:19:05;;;;;;;;;;;4.90;99.90;;;;;;4976355;28;19930;-76
2022/01/23 09:21:32;;;;;;;;;;;4.90;99.90;;;;;;4976804;28;19930;-76
2022/01/23 09:23:59;;;;;;;;;;;4.90;99.90;;;;;;4982769;28;19926;-75
2022/01/23 09:26:26;;;;;;;;;;;4.90;99.90;;;;;;4975677;28;19974;-76
2022/01/23 09:28:55;;;;;;;;;;;5.00;99.90;;;;;;4975122;28;19931;-76
2022/01/23 09:31:48;;;;;;;;;;;5.00;99.90;;;;;;4982941;28;19925;-77
2022/01/23 09:34:21;;;;;;;;;;;5.00;99.90;;;;;;4980426;28;21247;-77
2022/01/23 09:36:51;;;;;;;;;;;5.00;99.90;;;;;;4970858;28;19973;-76
2022/01/23 09:39:20;;;;;;;;;;;5.10;99.90;;;;;;4974348;28;20270;-76
2022/01/23 09:41:59;;;;;;;;;;;5.10;99.90;;;;;;4976546;28;19930;-77
2022/01/23 09:44:28;;;;;;;;;;;5.00;99.90;;;;;;4979075;28;19934;-76
2022/01/23 09:46:55;;;;;;;;;;;5.10;99.90;;;;;;4980539;28;19952;-76
2022/01/23 09:49:24;;;;;;;;;;;5.20;99.90;;;;;;4977502;28;19933;-76
2022/01/23 09:51:51;;;;;;;;;;;5.20;99.90;;;;;;4983181;28;19925;-76
2022/01/23 09:54:21;;;;;;;;;;;5.20;99.90;;;;;;4981916;28;19926;-76
2022/01/23 09:56:51;;;;;;;;;;;5.30;99.90;;;;;;4970216;28;20129;-76
2022/01/23 09:59:18;;;;;;;;;;;5.30;99.90;;;;;;4978608;28;19926;-77
2022/01/23 10:01:52;;;;;;;;;;;5.40;99.90;;;;;;4980375;28;20312;-77
2022/01/23 10:04:19;;;;;;;;;;;5.40;99.90;;;;;;4984690;28;20385;-77
2022/01/23 10:06:46;;;;;;;;;;;5.60;99.90;;;;;;4981947;28;19926;-75
2022/01/23 10:09:14;;;;;;;;;;;5.70;99.90;;;;;;4986546;28;19940;-76
2022/01/23 10:11:42;;;;;;;;;;;5.80;99.90;;;;;;4983572;28;19926;-76
2022/01/23 10:14:09;;;;;;;;;;;6.00;99.90;;;;;;4983640;28;19956;-75
2022/01/23 10:16:36;;;;;;;;;;;6.00;99.90;;;;;;4986848;28;19979;-76
2022/01/23 10:19:04;;;;;;;;;;;6.10;99.90;;;;;;4979496;28;19948;-77
2022/01/23 10:21:33;;;;;;;;;;;6.20;99.90;;;;;;4986597;28;19933;-76
2022/01/23 10:24:01;;;;;;;;;;;6.30;99.90;;;;;;4982961;28;20024;-76
2022/01/23 10:26:38;;;;;;;;;;;6.50;99.90;;;;;;4978647;28;19934;-76
2022/01/23 10:29:12;;;;;;;;;;;6.70;99.90;;;;;;4985555;28;19930;-76
2022/01/23 10:31:58;;;;;;;;;;;6.80;99.90;;;;;;4979933;28;19937;-77
2022/01/23 10:34:43;;;;;;;;;;;6.90;99.90;;;;;;4985806;28;19926;-77
2022/01/23 10:37:11;;;;;;;;;;;7.00;99.90;;;;;;4991727;28;19936;-76
2022/01/23 10:39:41;;;;;;;;;;;7.10;99.90;;;;;;4986470;28;20269;-76
2022/01/23 10:47:52;;;;;;;;;;;7.40;99.90;;;;;;4985301;28;20025;-76
2022/01/23 10:50:21;;;;;;;;;;;7.50;99.90;;;;;;4977090;28;20025;-77
2022/01/23 10:52:50;;;;;;;;;;;7.60;99.90;;;;;;4982247;28;19934;-75
2022/01/23 10:55:19;;;;;;;;;;;7.80;99.90;;;;;;4986195;28;19922;-75
2022/01/23 10:57:50;;;;;;;;;;;8.00;99.90;;;;;;4976872;28;19932;-75
2022/01/23 11:00:31;;;;;;;;;;;8.00;99.90;;;;;;4980693;28;19936;-76
2022/01/23 11:02:59;;;;;;;;;;;8.00;99.90;;;;;;4979171;28;20518;-76
2022/01/23 11:05:36;;;;;;;;;;;8.20;99.90;;;;;;4982789;28;20032;-76
2022/01/23 11:08:17;;;;;;;;;;;8.20;99.90;;;;;;4981136;28;19937;-76
2022/01/23 11:10:54;;;;;;;;;;;8.30;99.90;;;;;;4980177;28;19933;-76
2022/01/23 11:19:16;;;;;;;;;;;8.30;99.90;;;;;;4984497;28;19930;-76
2022/01/23 11:21:43;;;;;;;;;;;8.20;99.90;;;;;;4977172;28;19926;-76
2022/01/23 11:24:19;;;;;;;;;;;8.20;99.90;;;;;;4979894;28;19929;-76
2022/01/23 11:26:45;;;;;;;;;;;8.20;99.90;;;;;;4978067;28;20387;-76
2022/01/23 11:29:13;;;;;;;;;;;8.20;99.90;;;;;;4977807;28;19996;-76
2022/01/23 11:31:42;;;;;;;;;;;8.20;99.90;;;;;;4984842;28;20133;-76
2022/01/23 11:34:11;;;;;;;;;;;8.20;99.90;;;;;;4977045;28;20012;-76
2022/01/23 11:36:38;;;;;;;;;;;8.30;99.90;;;;;;4972743;28;19932;-76
2022/01/23 11:39:17;;;;;;;;;;;8.30;99.90;;;;;;4982099;28;20285;-76
2022/01/23 11:50:50;;;;;;;;;;;8.60;99.90;;;;;;4987556;28;19921;-77
2022/01/23 11:56:30;;;;;;;;;;;9.20;99.90;;;;;;4982353;28;19922;-76
2022/01/23 11:59:09;;;;;;;;;;;9.50;99.90;;;;;;4981053;28;20374;-77
2022/01/23 12:01:39;;;;;;;;;;;9.70;99.90;;;;;;4979115;28;19965;-77
2022/01/23 12:04:05;;;;;;;;;;;9.60;99.90;;;;;;4979024;28;20025;-75
2022/01/23 12:06:33;;;;;;;;;;;9.50;99.90;;;;;;4981395;28;19929;-77
2022/01/23 12:09:09;;;;;;;;;;;9.40;99.90;;;;;;4972815;28;19921;-76
2022/01/23 12:11:47;;;;;;;;;;;9.30;99.90;;;;;;4985452;28;19929;-76
2022/01/23 12:17:02;;;;;;;;;;;9.60;99.90;;;;;;4976616;28;20402;-77
2022/01/23 12:19:34;;;;;;;;;;;9.50;99.90;;;;;;4980956;28;19928;-77
2022/01/23 12:22:19;;;;;;;;;;;9.70;99.90;;;;;;4977371;28;19930;-77
2022/01/23 12:24:56;;;;;;;;;;;9.70;99.90;;;;;;4972514;28;19930;-77
2022/01/23 12:27:26;;;;;;;;;;;9.90;99.90;;;;;;4978104;28;20012;-77
2022/01/23 12:30:09;;;;;;;;;;;10.10;99.90;;;;;;4977130;28;20430;-77
2022/01/23 12:32:36;;;;;;;;;;;9.90;99.90;;;;;;4983290;28;19921;-75
2022/01/23 12:35:04;;;;;;;;;;;9.90;99.90;;;;;;4978762;28;20051;-78
2022/01/23 12:37:50;;;;;;;;;;;10.10;99.90;;;;;;4981438;28;20308;-78
2022/01/23 12:40:26;;;;;;;;;;;10.50;99.90;;;;;;4973289;28;20590;-75
2022/01/23 12:43:09;;;;;;;;;;;10.60;99.90;;;;;;4980784;28;19921;-76
2022/01/23 12:45:45;;;;;;;;;;;10.60;99.90;;;;;;4983473;28;19922;-76
2022/01/23 12:48:30;;;;;;;;;;;10.80;99.90;;;;;;4971880;28;19921;-76
2022/01/23 12:50:58;;;;;;;;;;;10.90;99.90;;;;;;4981028;28;19922;-76
2022/01/23 12:53:41;;;;;;;;;;;10.90;99.90;;;;;;4975278;28;19929;-76
2022/01/23 12:56:10;;;;;;;;;;;10.90;99.90;;;;;;4980004;28;19925;-76
2022/01/23 12:58:37;;;;;;;;;;;10.60;99.90;;;;;;4975672;28;19921;-76
2022/01/23 13:01:07;;;;;;;;;;;10.20;99.90;;;;;;4980465;28;19936;-76
2022/01/23 13:03:37;;;;;;;;;;;9.70;99.90;;;;;;4979042;28;20308;-75
2022/01/23 13:06:10;;;;;;;;;;;9.20;99.90;;;;;;4984616;28;20350;-75
2022/01/23 13:08:47;;;;;;;;;;;8.90;99.90;;;;;;4978539;28;19930;-75
2022/01/23 13:11:49;;;;;;;;;;;8.60;99.90;;;;;;4969960;28;20470;-76
2022/01/23 13:14:09;;;;;;;;;;;8.10;99.90;;;;;;4981570;28;19930;-75
2022/01/23 13:17:09;;;;;;;;;;;7.90;99.90;;;;;;4980727;28;19963;-75
2022/01/23 13:19:59;;;;;;;;;;;7.60;99.90;;;;;;4972401;28;19930;-76
2022/01/23 13:31:16;;;;;;;;;;;7.30;99.90;;;;;;4981306;28;19924;-76
2022/01/23 13:33:42;;;;;;;;;;;7.30;99.90;;;;;;4993835;28;19929;-77
2022/01/23 13:36:10;;;;;;;;;;;7.30;99.90;;;;;;4978279;28;20266;-76
2022/01/23 13:38:39;;;;;;;;;;;7.20;99.90;;;;;;4987882;28;19969;-77
2022/01/23 13:41:21;;;;;;;;;;;7.20;99.90;;;;;;4981695;28;25113;-77
2022/01/23 13:52:23;;;;;;;;;;;7.10;99.90;;;;;;4982117;28;19930;-77
2022/01/23 13:58:04;;;;;;;;;;;7.00;99.90;;;;;;4986253;28;20198;-76
2022/01/23 14:00:31;;;;;;;;;;;6.90;99.90;;;;;;4985757;28;19948;-76
2022/01/23 14:02:58;;;;;;;;;;;6.90;99.90;;;;;;4988191;28;19921;-76
2022/01/23 14:05:28;;;;;;;;;;;7.00;99.90;;;;;;4983189;28;19940;-75
2022/01/23 14:07:58;;;;;;;;;;;6.90;99.90;;;;;;4990099;28;19976;-77
2022/01/23 14:10:33;;;;;;;;;;;6.80;99.90;;;;;;5006582;28;19920;-76
2022/01/23 14:13:06;;;;;;;;;;;6.80;99.90;;;;;;5007767;28;19973;-76
2022/01/23 14:15:33;;;;;;;;;;;6.70;99.90;;;;;;4985772;28;19926;-77
2022/01/23 14:18:00;;;;;;;;;;;6.60;99.90;;;;;;4996926;28;20377;-76
2022/01/23 14:20:27;;;;;;;;;;;6.60;99.90;;;;;;4981720;28;19922;-76
2022/01/23 14:22:55;;;;;;;;;;;6.60;99.90;;;;;;4982648;28;20383;-76
2022/01/23 14:25:22;;;;;;;;;;;6.50;99.90;;;;;;4982526;28;19926;-75
2022/01/23 14:28:03;;;;;;;;;;;6.50;99.90;;;;;;4987232;28;19929;-75
2022/01/23 14:30:30;;;;;;;;;;;6.50;99.90;;;;;;4992089;28;20288;-76
2022/01/23 14:33:06;;;;;;;;;;;6.40;99.90;;;;;;4994383;28;20649;-76
2022/01/23 14:35:33;;;;;;;;;;;6.40;99.90;;;;;;4980876;28;19932;-76
2022/01/23 14:38:10;;;;;;;;;;;6.40;99.90;;;;;;4980767;28;20008;-76
2022/01/23 14:40:38;;;;;;;;;;;6.30;99.90;;;;;;4989951;28;19948;-76
2022/01/23 14:43:11;;;;;;;;;;;6.30;99.90;;;;;;4987171;28;19930;-76
2022/01/23 14:45:40;;;;;;;;;;;6.30;99.90;;;;;;4986152;28;19922;-75
2022/01/23 14:48:07;;;;;;;;;;;6.30;99.90;;;;;;4979953;28;19926;-76
2022/01/23 14:50:36;;;;;;;;;;;6.30;99.90;;;;;;4984825;28;19928;-75
2022/01/23 14:53:05;;;;;;;;;;;6.30;99.90;;;;;;4982796;28;19922;-76
2022/01/23 14:55:32;;;;;;;;;;;6.30;99.90;;;;;;4976628;28;19928;-75
2022/01/23 14:58:01;;;;;;;;;;;6.30;99.90;;;;;;4977215;28;19929;-76
2022/01/23 15:00:33;;;;;;;;;;;6.20;99.90;;;;;;4980310;28;19951;-76
2022/01/23 15:03:01;;;;;;;;;;;6.20;99.90;;;;;;4981623;28;20013;-75
2022/01/23 15:05:29;;;;;;;;;;;6.20;99.90;;;;;;4969040;28;19988;-75
2022/01/23 15:07:56;;;;;;;;;;;6.10;99.90;;;;;;4985195;28;19979;-76
2022/01/23 15:10:23;;;;;;;;;;;6.10;99.90;;;;;;4985339;28;19925;-76
2022/01/23 15:12:50;;;;;;;;;;;6.10;99.90;;;;;;4988950;28;19936;-76
2022/01/23 15:15:16;;;;;;;;;;;6.10;99.90;;;;;;4985759;28;20000;-76
2022/01/23 15:17:43;;;;;;;;;;;6.20;99.90;;;;;;4979027;28;19940;-76
2022/01/23 15:20:10;;;;;;;;;;;6.10;99.90;;;;;;4984522;28;19929;-76
2022/01/23 15:22:36;;;;;;;;;;;6.10;99.90;;;;;;4986988;28;20008;-76
2022/01/23 15:25:06;;;;;;;;;;;6.10;99.90;;;;;;4984836;28;20376;-75
2022/01/23 15:27:33;;;;;;;;;;;6.00;99.90;;;;;;4973984;28;19933;-76
2022/01/23 15:29:59;;;;;;;;;;;5.90;99.90;;;;;;4979511;28;19932;-76
2022/01/23 15:32:26;;;;;;;;;;;5.90;99.90;;;;;;4979916;28;20383;-76
2022/01/23 15:34:53;;;;;;;;;;;5.80;99.90;;;;;;4980577;28;20679;-76
2022/01/23 15:37:21;;;;;;;;;;;5.80;99.90;;;;;;4950121;28;19928;-77
2022/01/23 15:39:48;;;;;;;;;;;5.70;99.90;;;;;;4974873;28;20039;-76
2022/01/23 15:42:14;;;;;;;;;;;5.70;99.90;;;;;;4986065;28;19928;-77
2022/01/23 15:44:41;;;;;;;;;;;5.70;99.90;;;;;;4972919;28;19951;-76
2022/01/23 15:47:08;;;;;;;;;;;5.70;99.90;;;;;;4958730;28;20395;-75
2022/01/23 15:49:35;;;;;;;;;;;5.70;99.90;;;;;;4959706;28;19926;-77
2022/01/23 15:52:03;;;;;;;;;;;5.60;99.90;;;;;;4974495;28;20404;-76
2022/01/23 15:54:29;;;;;;;;;;;5.60;99.90;;;;;;4979369;28;19953;-76
2022/01/23 15:56:57;;;;;;;;;;;5.60;99.90;;;;;;4973393;28;19930;-77
2022/01/23 15:59:23;;;;;;;;;;;5.50;99.90;;;;;;4977266;28;19930;-76
2022/01/23 16:01:50;;;;;;;;;;;5.50;99.90;;;;;;4962890;28;19925;-77
2022/01/23 16:04:18;;;;;;;;;;;5.50;99.90;;;;;;4968341;28;20012;-76
2022/01/23 16:06:45;;;;;;;;;;;5.50;99.90;;;;;;4970215;28;19996;-77
2022/01/23 16:09:11;;;;;;;;;;;5.40;99.90;;;;;;4973317;28;19932;-77
2022/01/23 16:11:38;;;;;;;;;;;5.40;99.90;;;;;;4971925;28;21053;-77
2022/01/23 16:14:05;;;;;;;;;;;5.30;99.90;;;;;;4962471;28;19932;-75
2022/01/23 16:16:32;;;;;;;;;;;5.30;99.90;;;;;;4967971;28;20028;-77
2022/01/23 16:18:59;;;;;;;;;;;5.30;99.90;;;;;;4971403;28;20307;-76
2022/01/23 16:21:26;;;;;;;;;;;5.20;99.90;;;;;;4968805;28;20257;-77
2022/01/23 16:23:53;;;;;;;;;;;5.20;99.90;;;;;;4966002;28;19925;-77
2022/01/23 16:26:20;;;;;;;;;;;5.20;99.90;;;;;;4966224;28;20388;-76
2022/01/23 16:28:47;;;;;;;;;;;5.20;99.90;;;;;;4982513;28;19925;-77
2022/01/23 16:31:14;;;;;;;;;;;5.20;99.90;;;;;;4970626;28;20314;-77
2022/01/23 16:33:41;;;;;;;;;;;5.20;99.90;;;;;;4972562;28;20711;-77
2022/01/23 16:36:08;;;;;;;;;;;5.20;99.90;;;;;;4978070;28;20357;-77
2022/01/23 16:38:35;;;;;;;;;;;5.20;99.90;;;;;;4965131;28;19930;-77
2022/01/23 16:41:02;;;;;;;;;;;5.20;99.90;;;;;;4965674;28;19926;-76
2022/01/23 16:43:30;;;;;;;;;;;5.20;99.90;;;;;;4964309;28;19932;-76
2022/01/23 16:45:58;;;;;;;;;;;5.20;99.90;;;;;;4966922;28;20383;-76
2022/01/23 16:48:25;;;;;;;;;;;5.20;99.90;;;;;;4971210;28;19929;-77
2022/01/23 16:50:55;;;;;;;;;;;5.20;99.90;;;;;;4965708;28;20631;-77
2022/01/23 16:53:22;;;;;;;;;;;5.20;99.90;;;;;;4957648;28;20301;-76
2022/01/23 16:55:56;;;;;;;;;;;5.20;99.90;;;;;;4965629;28;19930;-75
2022/01/23 16:58:23;;;;;;;;;;;5.10;99.90;;;;;;4973117;28;20237;-78
2022/01/23 17:00:50;;;;;;;;;;;5.10;99.90;;;;;;4978198;28;19926;-75
2022/01/23 17:03:17;;;;;;;;;;;5.10;99.90;;;;;;4979336;28;19932;-76
2022/01/23 17:05:45;;;;;;;;;;;5.10;99.90;;;;;;4969027;28;19932;-77
2022/01/23 17:08:15;;;;;;;;;;;5.00;99.90;;;;;;4977395;28;19921;-77
2022/01/23 17:10:43;;;;;;;;;;;5.00;99.90;;;;;;4977044;28;20142;-77
2022/01/23 17:13:13;;;;;;;;;;;5.10;99.90;;;;;;4980587;28;20016;-77
2022/01/23 17:15:39;;;;;;;;;;;5.00;99.90;;;;;;4981751;28;19922;-76
2022/01/23 17:18:06;;;;;;;;;;;5.00;99.90;;;;;;4977238;28;19936;-77
2022/01/23 17:20:33;;;;;;;;;;;5.00;99.90;;;;;;4978346;28;20632;-76
2022/01/23 17:23:00;;;;;;;;;;;5.00;99.90;;;;;;4981040;28;19921;-76
2022/01/23 17:25:27;;;;;;;;;;;4.90;99.90;;;;;;4976011;28;19922;-77
2022/01/23 17:27:53;;;;;;;;;;;4.90;99.90;;;;;;4982159;28;19936;-77
2022/01/23 17:30:20;;;;;;;;;;;4.90;99.90;;;;;;4976360;28;19922;-77
2022/01/23 17:32:52;;;;;;;;;;;4.90;99.90;;;;;;4973796;28;19926;-77
2022/01/23 17:35:21;;;;;;;;;;;4.90;99.90;;;;;;4978334;28;19929;-77
2022/01/23 17:37:49;;;;;;;;;;;4.90;99.90;;;;;;4977557;28;20179;-77
2022/01/23 17:40:16;;;;;;;;;;;4.90;99.90;;;;;;4977617;28;19922;-78
2022/01/23 17:42:43;;;;;;;;;;;4.90;99.90;;;;;;4982959;28;19979;-77
2022/01/23 17:45:19;;;;;;;;;;;4.90;99.90;;;;;;4978347;28;19926;-77
2022/01/23 17:50:31;;;;;;;;;;;4.80;99.90;;;;;;4977084;28;20020;-78
2022/01/23 17:52:58;;;;;;;;;;;4.70;99.90;;;;;;4984401;28;20345;-75
2022/01/23 17:55:24;;;;;;;;;;;4.70;99.90;;;;;;4975297;28;20020;-76
2022/01/23 17:57:51;;;;;;;;;;;4.70;99.90;;;;;;4977047;28;20680;-76
2022/01/23 18:00:18;;;;;;;;;;;4.70;99.90;;;;;;4983963;28;19921;-76
2022/01/23 18:02:45;;;;;;;;;;;4.60;99.90;;;;;;4984907;28;20300;-77
2022/01/23 18:05:12;;;;;;;;;;;4.60;99.90;;;;;;4977890;28;19922;-77
2022/01/23 18:07:38;;;;;;;;;;;4.50;99.90;;;;;;4979483;28;19928;-76